createdAt,value
2018-11-10T00:00:18.843Z,10.30
2018-11-10T00:02:48.886Z,10.25
2018-11-10T00:05:19.353Z,10.30
2018-11-10T00:07:48.641Z,10.30
2018-11-10T00:10:18.539Z,10.27
2018-11-10T00:12:48.388Z,10.28
2018-11-10T00:15:18.139Z,10.31
2018-11-10T00:17:47.327Z,10.35
2018-11-10T00:20:16.534Z,10.38
2018-11-10T00:22:45.693Z,10.40
2018-11-10T00:25:15.282Z,10.42
2018-11-10T00:27:45.596Z,10.39
2018-11-10T00:30:17.258Z,10.41
2018-11-10T00:32:46.863Z,10.42
2018-11-10T00:35:16.055Z,10.43
2018-11-10T00:37:45.553Z,10.44
2018-11-10T00:40:15.893Z,10.45
2018-11-10T00:42:45.460Z,10.48
2018-11-10T00:45:14.722Z,10.49
2018-11-10T00:47:43.978Z,10.50
2018-11-10T00:50:13.167Z,10.50
2018-11-10T00:52:42.351Z,10.49
2018-11-10T00:55:12.485Z,10.49
2018-11-10T00:57:41.672Z,10.50
2018-11-10T01:00:12.337Z,10.51
2018-11-10T01:02:42.448Z,10.52
2018-11-10T01:05:12.139Z,10.52
2018-11-10T01:07:41.566Z,10.50
2018-11-10T01:10:12.477Z,10.46
2018-11-10T01:12:42.093Z,10.42
2018-11-10T01:15:13.433Z,10.40
2018-11-10T01:17:43.423Z,10.37
2018-11-10T01:20:13.335Z,10.36
2018-11-10T01:22:42.519Z,10.34
2018-11-10T01:25:12.326Z,10.35
2018-11-10T01:27:41.531Z,10.35
2018-11-10T01:30:13.385Z,10.35
2018-11-10T01:32:43.292Z,10.36
2018-11-10T01:35:12.606Z,10.35
2018-11-10T01:37:41.798Z,10.36
2018-11-10T01:40:12.505Z,10.37
2018-11-10T01:42:42.437Z,10.38
2018-11-10T01:45:14.512Z,10.38
2018-11-10T01:47:44.309Z,10.39
2018-11-10T01:50:13.624Z,10.40
2018-11-10T01:52:43.194Z,10.40
2018-11-10T01:55:12.706Z,10.40
2018-11-10T01:57:42.624Z,10.40
2018-11-10T02:00:14.954Z,10.41
2018-11-10T02:02:44.891Z,10.41
2018-11-10T02:05:14.312Z,10.41
2018-11-10T02:07:43.523Z,10.41
2018-11-10T02:10:13.380Z,10.41
2018-11-10T02:12:43.000Z,10.41
2018-11-10T02:15:15.204Z,10.39
2018-11-10T02:17:44.481Z,10.39
2018-11-10T02:20:14.646Z,10.36
2018-11-10T02:22:44.066Z,10.34
2018-11-10T02:25:13.637Z,10.32
2018-11-10T02:27:42.855Z,10.29
2018-11-10T02:30:12.436Z,10.26
2018-11-10T02:32:41.804Z,10.22
2018-11-10T02:35:11.388Z,10.18
2018-11-10T02:37:41.064Z,10.17
2018-11-10T02:40:12.775Z,10.18
2018-11-10T02:42:42.030Z,10.21
2018-11-10T02:45:12.606Z,10.26
2018-11-10T02:47:42.031Z,10.27
2018-11-10T02:50:11.276Z,10.29
2018-11-10T02:52:40.520Z,10.26
2018-11-10T02:55:10.580Z,10.21
2018-11-10T02:57:39.981Z,10.15
2018-11-10T03:00:10.476Z,10.18
2018-11-10T03:02:39.668Z,10.18
2018-11-10T03:05:09.621Z,10.17
2018-11-10T03:07:39.218Z,10.17
2018-11-10T03:10:09.545Z,10.19
2018-11-10T03:12:39.561Z,10.17
2018-11-10T03:15:09.988Z,10.22
2018-11-10T03:17:39.188Z,10.23
2018-11-10T03:20:10.413Z,10.25
2018-11-10T03:22:39.593Z,10.28
2018-11-10T03:25:09.410Z,10.29
2018-11-10T03:27:38.798Z,10.31
2018-11-10T03:30:08.179Z,10.32
2018-11-10T03:32:38.590Z,10.35
2018-11-10T03:35:08.758Z,10.36
2018-11-10T03:37:37.978Z,10.36
2018-11-10T03:40:08.521Z,10.33
2018-11-10T03:42:38.034Z,10.31
2018-11-10T03:45:08.510Z,10.32
2018-11-10T03:47:37.732Z,10.33
2018-11-10T03:50:07.436Z,10.35
2018-11-10T03:52:37.321Z,10.34
2018-11-10T03:55:07.462Z,10.35
2018-11-10T03:57:36.694Z,10.36
2018-11-10T04:00:07.163Z,10.34
2018-11-10T04:02:36.382Z,10.35
2018-11-10T04:05:06.056Z,10.32
2018-11-10T04:07:35.318Z,10.25
2018-11-10T04:10:05.196Z,10.23
2018-11-10T04:12:34.549Z,10.27
2018-11-10T04:15:04.472Z,10.29
2018-11-10T04:17:33.918Z,10.28
2018-11-10T04:20:03.266Z,10.29
2018-11-10T04:22:35.252Z,10.32
2018-11-10T04:25:05.969Z,10.33
2018-11-10T04:27:35.871Z,10.33
2018-11-10T04:30:06.914Z,10.34
2018-11-10T04:32:36.887Z,10.33
2018-11-10T04:35:07.113Z,10.33
2018-11-10T04:37:36.516Z,10.33
2018-11-10T04:40:06.613Z,10.34
2018-11-10T04:42:35.848Z,10.34
2018-11-10T04:45:05.464Z,10.36
2018-11-10T04:47:34.710Z,10.34
2018-11-10T04:50:04.451Z,10.33
2018-11-10T04:52:33.703Z,10.32
2018-11-10T04:55:02.924Z,10.33
2018-11-10T04:57:32.306Z,10.32
2018-11-10T05:00:01.538Z,10.31
2018-11-10T05:02:30.763Z,10.32
2018-11-10T05:05:00.072Z,10.31
2018-11-10T05:07:29.328Z,10.31
2018-11-10T05:09:59.190Z,10.29
2018-11-10T05:12:29.355Z,10.28
2018-11-10T05:14:58.614Z,10.31
2018-11-10T05:17:27.887Z,10.31
2018-11-10T05:19:57.390Z,10.31
2018-11-10T05:22:26.678Z,10.32
2018-11-10T05:24:55.934Z,10.32
2018-11-10T05:27:25.388Z,10.34
2018-11-10T05:29:54.728Z,10.36
2018-11-10T05:32:23.986Z,10.34
2018-11-10T05:34:53.268Z,10.32
2018-11-10T05:37:22.502Z,10.33
2018-11-10T05:39:51.786Z,10.36
2018-11-10T05:42:21.049Z,10.36
2018-11-10T05:44:50.266Z,10.36
2018-11-10T05:47:19.560Z,10.36
2018-11-10T05:49:49.546Z,10.35
2018-11-10T05:52:18.747Z,10.32
2018-11-10T05:54:48.149Z,10.30
2018-11-10T05:57:17.477Z,10.31
2018-11-10T05:59:46.664Z,10.31
2018-11-10T06:02:15.962Z,10.33
2018-11-10T06:04:45.274Z,10.35
2018-11-10T06:07:14.492Z,10.36
2018-11-10T06:09:43.828Z,10.36
2018-11-10T06:12:13.096Z,10.38
2018-11-10T06:14:42.364Z,10.38
2018-11-10T06:17:11.869Z,10.33
2018-11-10T06:19:41.127Z,10.41
2018-11-10T06:22:10.387Z,10.42
2018-11-10T06:24:39.623Z,10.40
2018-11-10T06:27:09.117Z,10.38
2018-11-10T06:29:38.373Z,10.35
2018-11-10T06:32:07.803Z,10.36
2018-11-10T06:34:37.094Z,10.38
2018-11-10T06:37:06.824Z,10.39
2018-11-10T06:39:36.088Z,10.35
2018-11-10T06:42:06.204Z,10.34
2018-11-10T06:44:35.599Z,10.39
2018-11-10T06:47:05.085Z,10.45
2018-11-10T06:49:34.380Z,10.47
2018-11-10T06:52:03.601Z,10.52
2018-11-10T06:54:32.805Z,10.49
2018-11-10T06:57:02.144Z,10.44
2018-11-10T06:59:31.362Z,10.48
2018-11-10T07:02:00.535Z,10.46
2018-11-10T07:04:29.719Z,10.42
2018-11-10T07:06:58.889Z,10.49
2018-11-10T07:09:28.159Z,10.51
2018-11-10T07:11:57.504Z,10.56
2018-11-10T07:14:26.738Z,10.58
2018-11-10T07:16:55.972Z,10.55
2018-11-10T07:19:25.163Z,10.48
2018-11-10T07:21:54.466Z,10.52
2018-11-10T07:24:23.643Z,10.49
2018-11-10T07:26:52.919Z,10.50
2018-11-10T07:29:22.294Z,10.55
2018-11-10T07:31:52.557Z,10.61
2018-11-10T07:34:21.780Z,10.67
2018-11-10T07:36:50.987Z,10.64
2018-11-10T07:39:20.268Z,10.62
2018-11-10T07:41:49.497Z,10.66
2018-11-10T07:44:18.784Z,10.63
2018-11-10T07:46:47.978Z,10.63
2018-11-10T07:49:17.343Z,10.65
2018-11-10T07:51:46.588Z,10.74
2018-11-10T07:54:16.062Z,10.74
2018-11-10T07:56:45.395Z,10.69
2018-11-10T07:59:14.641Z,10.72
2018-11-10T08:01:43.922Z,10.73
2018-11-10T08:04:13.422Z,10.78
2018-11-10T08:06:42.697Z,10.77
2018-11-10T08:09:12.040Z,10.78
2018-11-10T08:11:41.530Z,10.73
2018-11-10T08:14:10.849Z,10.74
2018-11-10T08:16:40.159Z,10.73
2018-11-10T08:19:09.881Z,10.77
2018-11-10T08:21:39.097Z,10.85
2018-11-10T08:24:08.419Z,10.75
2018-11-10T08:26:38.168Z,10.75
2018-11-10T08:29:07.549Z,10.75
2018-11-10T08:31:36.821Z,10.80
2018-11-10T08:34:06.184Z,10.85
2018-11-10T08:36:36.351Z,10.86
2018-11-10T08:39:07.957Z,10.86
2018-11-10T08:41:37.427Z,10.91
2018-11-10T08:44:07.062Z,10.91
2018-11-10T08:46:36.402Z,10.88
2018-11-10T08:49:05.962Z,10.91
2018-11-10T08:51:35.223Z,10.95
2018-11-10T08:54:04.501Z,10.97
2018-11-10T08:56:34.271Z,11.00
2018-11-10T08:59:04.519Z,11.03
2018-11-10T09:01:33.990Z,10.97
2018-11-10T09:04:03.227Z,10.84
2018-11-10T09:06:32.513Z,10.88
2018-11-10T09:09:01.833Z,10.82
2018-11-10T09:11:31.054Z,10.91
2018-11-10T09:14:00.343Z,11.03
2018-11-10T09:16:29.605Z,11.19
2018-11-10T09:18:58.860Z,11.14
2018-11-10T09:21:28.259Z,11.13
2018-11-10T09:23:57.612Z,11.13
2018-11-10T09:26:26.901Z,11.13
2018-11-10T09:28:56.255Z,11.17
2018-11-10T09:31:25.814Z,11.21
2018-11-10T09:33:55.196Z,11.22
2018-11-10T09:36:24.454Z,11.20
2018-11-10T09:38:53.708Z,11.13
2018-11-10T09:41:22.996Z,11.20
2018-11-10T09:43:52.302Z,11.18
2018-11-10T09:46:21.614Z,11.11
2018-11-10T09:48:50.878Z,11.08
2018-11-10T09:51:20.103Z,11.21
2018-11-10T09:53:49.288Z,11.09
2018-11-10T09:56:18.477Z,11.17
2018-11-10T09:58:47.751Z,11.04
2018-11-10T10:01:17.091Z,11.12
2018-11-10T10:03:46.270Z,11.16
2018-11-10T10:06:15.450Z,11.12
2018-11-10T10:08:45.072Z,10.97
2018-11-10T10:11:14.276Z,10.99
2018-11-10T10:13:43.530Z,10.84
2018-11-10T10:16:13.432Z,10.89
2018-11-10T10:18:42.587Z,10.83
2018-11-10T10:21:12.121Z,10.69
2018-11-10T10:23:41.400Z,10.61
2018-11-10T10:26:10.686Z,10.72
2018-11-10T10:28:39.980Z,10.87
2018-11-10T10:31:09.515Z,10.89
2018-11-10T10:33:38.754Z,10.87
2018-11-10T10:36:07.993Z,10.55
2018-11-10T10:38:37.194Z,10.56
2018-11-10T10:41:06.648Z,10.61
2018-11-10T10:43:36.053Z,10.55
2018-11-10T10:46:05.291Z,10.51
2018-11-10T10:48:34.640Z,10.46
2018-11-10T10:51:03.752Z,10.45
2018-11-10T10:53:32.992Z,10.49
2018-11-10T10:56:02.309Z,10.49
2018-11-10T10:58:31.377Z,10.45
2018-11-10T11:01:05.988Z,10.45
2018-11-10T11:03:40.315Z,10.50
2018-11-10T11:06:09.492Z,10.51
2018-11-10T11:08:38.691Z,10.65
2018-11-10T11:11:08.141Z,10.58
2018-11-10T11:13:37.292Z,10.60
2018-11-10T11:16:06.611Z,10.58
2018-11-10T11:18:35.758Z,10.59
2018-11-10T11:21:05.348Z,10.58
2018-11-10T11:23:34.501Z,10.58
2018-11-10T11:26:03.829Z,10.65
2018-11-10T11:28:33.144Z,10.58
2018-11-10T11:31:02.336Z,10.54
2018-11-10T11:33:31.459Z,10.44
2018-11-10T11:36:00.591Z,10.39
2018-11-10T11:38:30.025Z,10.48
2018-11-10T11:40:59.216Z,10.49
2018-11-10T11:43:28.765Z,10.45
2018-11-10T11:45:57.978Z,10.44
2018-11-10T11:48:27.750Z,10.50
2018-11-10T11:50:56.958Z,10.47
2018-11-10T11:53:26.270Z,10.49
2018-11-10T11:55:55.420Z,10.53
2018-11-10T11:58:24.640Z,10.43
2018-11-10T12:00:53.830Z,10.45
2018-11-10T12:03:23.033Z,10.44
2018-11-10T12:05:52.306Z,10.41
2018-11-10T12:08:21.526Z,10.46
2018-11-10T12:10:50.706Z,10.32
2018-11-10T12:13:19.861Z,10.38
2018-11-10T12:15:49.035Z,10.41
2018-11-10T12:18:18.213Z,10.38
2018-11-10T12:20:47.488Z,10.40
2018-11-10T12:23:16.687Z,10.34
2018-11-10T12:25:45.850Z,10.33
2018-11-10T12:28:15.360Z,10.33
2018-11-10T12:30:44.512Z,10.24
2018-11-10T12:33:13.786Z,10.25
2018-11-10T12:35:42.955Z,10.27
2018-11-10T12:38:12.135Z,10.31
2018-11-10T12:40:41.333Z,10.35
2018-11-10T12:43:11.253Z,10.23
2018-11-10T12:45:40.436Z,10.31
2018-11-10T12:48:09.654Z,10.30
2018-11-10T12:50:38.828Z,10.40
2018-11-10T12:53:08.252Z,10.50
2018-11-10T12:55:37.937Z,10.67
2018-11-10T12:58:07.451Z,10.55
2018-11-10T13:00:36.702Z,10.51
2018-11-10T13:03:06.175Z,10.38
2018-11-10T13:05:35.363Z,10.41
2018-11-10T13:08:04.628Z,10.38
2018-11-10T13:10:33.895Z,10.41
2018-11-10T13:13:03.139Z,10.42
2018-11-10T13:15:32.311Z,10.27
2018-11-10T13:18:01.525Z,10.26
2018-11-10T13:20:30.760Z,10.29
2018-11-10T13:23:00.007Z,10.26
2018-11-10T13:25:29.234Z,10.26
2018-11-10T13:27:58.602Z,10.25
2018-11-10T13:30:27.847Z,10.25
2018-11-10T13:32:57.067Z,10.31
2018-11-10T13:35:26.260Z,10.32
2018-11-10T13:37:55.538Z,10.28
2018-11-10T13:40:24.671Z,10.34
2018-11-10T13:42:53.857Z,10.23
2018-11-10T13:45:23.082Z,10.22
2018-11-10T13:47:52.264Z,10.21
2018-11-10T13:50:21.504Z,10.23
2018-11-10T13:52:51.130Z,10.22
2018-11-10T13:55:19.874Z,10.15
2018-11-10T13:57:49.070Z,10.23
2018-11-10T14:00:19.193Z,10.21
2018-11-10T14:02:48.433Z,10.21
2018-11-10T14:05:17.722Z,10.17
2018-11-10T14:07:46.971Z,10.14
2018-11-10T14:10:16.624Z,10.16
2018-11-10T14:12:46.717Z,10.20
2018-11-10T14:15:16.014Z,10.21
2018-11-10T14:17:45.388Z,10.19
2018-11-10T14:20:15.667Z,10.15
2018-11-10T14:22:46.302Z,10.15
2018-11-10T14:25:16.328Z,10.17
2018-11-10T14:27:45.891Z,10.17
2018-11-10T14:30:16.455Z,10.24
2018-11-10T14:32:46.104Z,10.20
2018-11-10T14:35:15.338Z,10.22
2018-11-10T14:37:44.601Z,10.20
2018-11-10T14:40:16.327Z,10.18
2018-11-10T14:42:45.818Z,10.17
2018-11-10T14:45:16.458Z,10.14
2018-11-10T14:47:45.974Z,10.15
2018-11-10T14:50:15.943Z,10.15
2018-11-10T14:52:45.286Z,10.13
2018-11-10T14:55:14.883Z,10.15
2018-11-10T14:57:44.448Z,10.15
2018-11-10T15:00:16.930Z,10.12
2018-11-10T15:02:46.124Z,10.13
2018-11-10T15:05:15.323Z,10.11
2018-11-10T15:07:45.147Z,10.09
2018-11-10T15:10:15.569Z,10.11
2018-11-10T15:12:45.192Z,10.08
2018-11-10T15:15:15.392Z,10.09
2018-11-10T15:17:44.823Z,10.10
2018-11-10T15:20:16.153Z,10.10
2018-11-10T15:22:45.309Z,10.09
2018-11-10T15:25:15.850Z,10.08
2018-11-10T15:27:45.055Z,10.08
2018-11-10T15:30:18.826Z,10.06
2018-11-10T15:32:48.513Z,10.09
2018-11-10T15:35:19.010Z,10.15
2018-11-10T15:37:49.673Z,10.06
2018-11-10T15:40:20.152Z,10.08
2018-11-10T15:42:49.520Z,10.07
2018-11-10T15:45:19.864Z,10.06
2018-11-10T15:47:49.716Z,10.04
2018-11-10T15:50:19.627Z,10.09
2018-11-10T15:52:48.909Z,10.10
2018-11-10T15:55:18.139Z,10.10
2018-11-10T15:57:47.598Z,10.10
2018-11-10T16:00:18.352Z,10.06
2018-11-10T16:02:47.603Z,10.05
2018-11-10T16:05:16.975Z,10.08
2018-11-10T16:07:46.317Z,10.06
2018-11-10T16:10:15.612Z,10.08
2018-11-10T16:12:44.848Z,10.08
2018-11-10T16:15:16.701Z,10.10
2018-11-10T16:17:46.111Z,10.07
2018-11-10T16:20:18.739Z,10.07
2018-11-10T16:22:49.250Z,10.08
2018-11-10T16:25:18.789Z,10.04
2018-11-10T16:27:48.247Z,10.03
2018-11-10T16:30:18.551Z,10.02
2018-11-10T16:32:48.198Z,10.04
2018-11-10T16:35:17.444Z,10.05
2018-11-10T16:37:46.657Z,10.07
2018-11-10T16:40:17.444Z,10.09
2018-11-10T16:42:47.363Z,10.09
2018-11-10T16:45:17.365Z,10.15
2018-11-10T16:47:46.569Z,10.10
2018-11-10T16:50:15.838Z,10.08
2018-11-10T16:52:45.656Z,10.05
2018-11-10T16:55:14.929Z,10.03
2018-11-10T16:57:44.180Z,10.02
2018-11-10T17:00:16.685Z,10.03
2018-11-10T17:02:45.930Z,10.02
2018-11-10T17:05:15.223Z,10.01
2018-11-10T17:07:44.507Z,10.06
2018-11-10T17:10:15.098Z,10.06
2018-11-10T17:12:44.396Z,10.11
2018-11-10T17:15:13.626Z,10.09
2018-11-10T17:17:42.915Z,10.13
2018-11-10T17:20:14.166Z,10.12
2018-11-10T17:22:43.569Z,10.13
2018-11-10T17:25:13.442Z,9.89
2018-11-10T17:27:43.384Z,10.13
2018-11-10T17:30:19.849Z,10.13
2018-11-10T17:32:49.019Z,10.16
2018-11-10T17:35:18.233Z,10.12
2018-11-10T17:37:48.083Z,10.18
2018-11-10T17:40:17.469Z,10.16
2018-11-10T17:42:46.614Z,10.16
2018-11-10T17:45:18.395Z,10.06
2018-11-10T17:47:47.843Z,10.03
2018-11-10T17:50:18.184Z,10.01
2018-11-10T17:52:47.699Z,10.04
2018-11-10T17:55:17.781Z,10.05
2018-11-10T17:57:47.586Z,10.04
2018-11-10T18:00:17.217Z,10.09
2018-11-10T18:02:46.603Z,10.12
2018-11-10T18:05:16.774Z,10.09
2018-11-10T18:07:46.778Z,10.08
2018-11-10T18:10:17.428Z,10.12
2018-11-10T18:12:47.338Z,10.12
2018-11-10T18:15:17.567Z,10.15
2018-11-10T18:17:46.984Z,10.14
2018-11-10T18:20:17.567Z,10.14
2018-11-10T18:22:47.183Z,10.08
2018-11-10T18:25:16.689Z,10.04
2018-11-10T18:27:46.061Z,10.07
2018-11-10T18:30:16.079Z,10.14
2018-11-10T18:32:45.952Z,10.13
2018-11-10T18:35:15.498Z,10.13
2018-11-10T18:37:44.838Z,10.13
2018-11-10T18:40:14.297Z,10.15
2018-11-10T18:42:43.730Z,10.18
2018-11-10T18:45:13.778Z,10.25
2018-11-10T18:47:43.322Z,10.16
2018-11-10T18:50:15.474Z,10.17
2018-11-10T18:52:45.070Z,10.12
2018-11-10T18:55:17.523Z,10.17
2018-11-10T18:57:47.888Z,10.16
2018-11-10T19:00:17.938Z,10.17
2018-11-10T19:02:47.483Z,10.15
2018-11-10T19:05:17.593Z,10.22
2018-11-10T19:07:46.967Z,10.20
2018-11-10T19:10:17.843Z,10.19
2018-11-10T19:12:47.169Z,10.26
2018-11-10T19:15:18.697Z,10.28
2018-11-10T19:17:49.116Z,10.29
2018-11-10T19:20:18.763Z,10.24
2018-11-10T19:22:48.383Z,10.25
2018-11-10T19:25:18.478Z,10.18
2018-11-10T19:27:47.723Z,10.25
2018-11-10T19:30:18.496Z,10.27
2018-11-10T19:32:48.603Z,10.21
2018-11-10T19:35:18.658Z,10.23
2018-11-10T19:37:48.243Z,10.19
2018-11-10T19:40:17.558Z,10.24
2018-11-10T19:42:47.240Z,10.27
2018-11-10T19:45:16.424Z,10.22
2018-11-10T19:47:46.476Z,10.13
2018-11-10T19:50:16.106Z,10.13
2018-11-10T19:52:45.576Z,10.21
2018-11-10T19:55:16.233Z,10.21
2018-11-10T19:57:45.374Z,10.17
2018-11-10T20:00:19.077Z,10.22
2018-11-10T20:02:48.301Z,10.18
2018-11-10T20:05:17.817Z,10.21
2018-11-10T20:07:47.095Z,10.23
2018-11-10T20:10:16.380Z,10.26
2018-11-10T20:12:45.749Z,10.27
2018-11-10T20:15:15.831Z,10.26
2018-11-10T20:17:45.334Z,10.21
2018-11-10T20:20:15.852Z,10.23
2018-11-10T20:22:45.425Z,10.25
2018-11-10T20:25:16.108Z,10.24
2018-11-10T20:27:45.282Z,10.25
2018-11-10T20:30:17.079Z,10.19
2018-11-10T20:32:46.377Z,10.15
2018-11-10T20:35:15.563Z,10.15
2018-11-10T20:37:45.396Z,10.14
2018-11-10T20:40:15.465Z,10.15
2018-11-10T20:42:44.622Z,10.10
2018-11-10T20:45:15.742Z,10.12
2018-11-10T20:47:44.936Z,10.14
2018-11-10T20:50:14.755Z,10.17
2018-11-10T20:52:44.031Z,10.16
2018-11-10T20:55:13.769Z,10.14
2018-11-10T20:57:42.951Z,10.14
2018-11-10T21:00:14.609Z,10.13
2018-11-10T21:02:44.121Z,10.13
2018-11-10T21:05:13.929Z,10.09
2018-11-10T21:07:43.151Z,10.12
2018-11-10T21:10:14.222Z,10.13
2018-11-10T21:12:44.124Z,10.09
2018-11-10T21:15:13.985Z,10.11
2018-11-10T21:17:43.279Z,10.11
2018-11-10T21:20:13.053Z,10.09
2018-11-10T21:22:42.540Z,10.09
2018-11-10T21:25:13.613Z,10.09
2018-11-10T21:27:43.169Z,10.10
2018-11-10T21:30:14.383Z,10.08
2018-11-10T21:32:44.414Z,10.09
2018-11-10T21:35:14.121Z,10.11
2018-11-10T21:37:43.251Z,10.16
2018-11-10T21:40:15.978Z,10.14
2018-11-10T21:42:45.747Z,10.17
2018-11-10T21:45:15.633Z,10.16
2018-11-10T21:47:45.072Z,10.12
2018-11-10T21:50:15.691Z,10.10
2018-11-10T21:52:45.381Z,10.11
2018-11-10T21:55:15.943Z,10.10
2018-11-10T21:57:45.826Z,10.11
2018-11-10T22:00:17.081Z,10.12
2018-11-10T22:02:46.835Z,10.17
2018-11-10T22:05:15.901Z,10.16
2018-11-10T22:07:45.102Z,10.16
2018-11-10T22:10:15.529Z,10.18
2018-11-10T22:12:45.010Z,10.12
2018-11-10T22:15:17.454Z,10.10
2018-11-10T22:17:46.797Z,10.10
2018-11-10T22:20:17.465Z,10.13
2018-11-10T22:22:46.771Z,10.14
2018-11-10T22:25:16.316Z,10.18
2018-11-10T22:27:47.086Z,10.20
2018-11-10T22:30:17.591Z,10.18
2018-11-10T22:32:47.402Z,10.20
2018-11-10T22:35:16.588Z,10.22
2018-11-10T22:37:45.753Z,10.21
2018-11-10T22:40:16.324Z,10.20
2018-11-10T22:42:45.931Z,10.16
2018-11-10T22:45:16.470Z,10.17
2018-11-10T22:47:45.784Z,10.18
2018-11-10T22:50:17.335Z,10.22
2018-11-10T22:52:46.541Z,10.20
2018-11-10T22:55:15.821Z,10.20
2018-11-10T22:57:45.002Z,10.22
2018-11-10T23:00:21.294Z,10.21
2018-11-10T23:02:52.060Z,10.20
2018-11-10T23:05:21.827Z,9.85
2018-11-10T23:07:51.041Z,10.20
2018-11-10T23:10:20.629Z,10.30
2018-11-10T23:12:50.688Z,10.29
2018-11-10T23:15:19.917Z,10.30
2018-11-10T23:17:49.085Z,10.25
2018-11-10T23:20:18.958Z,10.23
2018-11-10T23:22:48.183Z,10.22
2018-11-10T23:25:18.286Z,10.27
2018-11-10T23:27:47.682Z,10.25
2018-11-10T23:30:18.789Z,10.29
2018-11-10T23:32:47.973Z,10.29
2018-11-10T23:35:17.174Z,10.30
2018-11-10T23:37:46.411Z,10.31
2018-11-10T23:40:16.655Z,10.31
2018-11-10T23:42:45.995Z,10.32
2018-11-10T23:45:15.817Z,10.29
2018-11-10T23:47:44.966Z,10.28
2018-11-10T23:50:15.377Z,10.28
2018-11-10T23:52:44.595Z,10.31
2018-11-10T23:55:14.608Z,10.27
2018-11-10T23:57:43.765Z,10.24
